sensor_id;sensor_type;location;lat;lon;timestamp;temperature;humidity
10233;DHT22;5161;48.174;11.756;2024-03-29T00:00:04;8.30;63.10
10233;DHT22;5161;48.174;11.756;2024-03-29T00:02:30;8.30;63.30
10233;DHT22;5161;48.174;11.756;2024-03-29T00:04:55;8.30;63.20
10233;DHT22;5161;48.174;11.756;2024-03-29T00:07:21;8.30;63.20
10233;DHT22;5161;48.174;11.756;2024-03-29T00:09:46;8.30;63.30
10233;DHT22;5161;48.174;11.756;2024-03-29T00:12:12;8.30;63.30
10233;DHT22;5161;48.174;11.756;2024-03-29T00:14:38;8.30;63.50
10233;DHT22;5161;48.174;11.756;2024-03-29T00:17:05;8.30;63.50
10233;DHT22;5161;48.174;11.756;2024-03-29T00:19:30;8.30;63.40
10233;DHT22;5161;48.174;11.756;2024-03-29T00:21:56;8.30;63.40
10233;DHT22;5161;48.174;11.756;2024-03-29T00:24:21;8.40;63.60
10233;DHT22;5161;48.174;11.756;2024-03-29T00:26:47;8.30;63.60
10233;DHT22;5161;48.174;11.756;2024-03-29T00:29:12;8.30;63.70
10233;DHT22;5161;48.174;11.756;2024-03-29T00:31:38;8.30;63.50
10233;DHT22;5161;48.174;11.756;2024-03-29T00:34:03;8.30;63.50
10233;DHT22;5161;48.174;11.756;2024-03-29T00:36:29;8.30;63.50
10233;DHT22;5161;48.174;11.756;2024-03-29T00:38:54;8.30;63.50
10233;DHT22;5161;48.174;11.756;2024-03-29T00:41:20;8.30;63.50
10233;DHT22;5161;48.174;11.756;2024-03-29T00:43:45;8.30;63.50
10233;DHT22;5161;48.174;11.756;2024-03-29T00:46:11;8.30;63.50
10233;DHT22;5161;48.174;11.756;2024-03-29T00:48:36;8.30;63.60
10233;DHT22;5161;48.174;11.756;2024-03-29T00:51:02;8.20;63.60
10233;DHT22;5161;48.174;11.756;2024-03-29T00:53:28;8.20;63.50
10233;DHT22;5161;48.174;11.756;2024-03-29T00:55:53;8.30;63.70
10233;DHT22;5161;48.174;11.756;2024-03-29T00:58:19;8.30;63.70
10233;DHT22;5161;48.174;11.756;2024-03-29T01:00:44;8.30;63.60
10233;DHT22;5161;48.174;11.756;2024-03-29T01:03:11;8.30;63.60
10233;DHT22;5161;48.174;11.756;2024-03-29T01:05:36;8.30;63.60
10233;DHT22;5161;48.174;11.756;2024-03-29T01:08:04;8.30;63.60
10233;DHT22;5161;48.174;11.756;2024-03-29T01:10:29;8.30;63.50
10233;DHT22;5161;48.174;11.756;2024-03-29T01:12:55;8.30;63.50
10233;DHT22;5161;48.174;11.756;2024-03-29T01:15:20;8.30;63.60
10233;DHT22;5161;48.174;11.756;2024-03-29T01:17:46;8.30;63.60
10233;DHT22;5161;48.174;11.756;2024-03-29T01:20:11;8.30;63.50
10233;DHT22;5161;48.174;11.756;2024-03-29T01:22:38;8.30;63.50
10233;DHT22;5161;48.174;11.756;2024-03-29T01:25:03;8.30;63.50
10233;DHT22;5161;48.174;11.756;2024-03-29T01:27:33;8.30;63.50
10233;DHT22;5161;48.174;11.756;2024-03-29T01:29:59;8.30;63.50
10233;DHT22;5161;48.174;11.756;2024-03-29T01:32:24;8.30;63.60
10233;DHT22;5161;48.174;11.756;2024-03-29T01:34:50;8.30;63.70
10233;DHT22;5161;48.174;11.756;2024-03-29T01:37:15;8.20;63.70
10233;DHT22;5161;48.174;11.756;2024-03-29T01:39:41;8.20;63.90
10233;DHT22;5161;48.174;11.756;2024-03-29T01:42:07;8.20;63.90
10233;DHT22;5161;48.174;11.756;2024-03-29T01:44:32;8.30;64.00
10233;DHT22;5161;48.174;11.756;2024-03-29T01:46:58;8.20;64.00
10233;DHT22;5161;48.174;11.756;2024-03-29T01:49:23;8.20;64.10
10233;DHT22;5161;48.174;11.756;2024-03-29T01:51:49;8.20;64.20
10233;DHT22;5161;48.174;11.756;2024-03-29T01:54:15;8.20;64.30
10233;DHT22;5161;48.174;11.756;2024-03-29T01:56:42;8.20;64.20
10233;DHT22;5161;48.174;11.756;2024-03-29T01:59:16;8.20;64.20
10233;DHT22;5161;48.174;11.756;2024-03-29T02:01:42;8.20;64.40
10233;DHT22;5161;48.174;11.756;2024-03-29T02:04:08;8.20;64.20
10233;DHT22;5161;48.174;11.756;2024-03-29T02:06:35;8.20;64.30
10233;DHT22;5161;48.174;11.756;2024-03-29T02:09:01;8.20;64.40
10233;DHT22;5161;48.174;11.756;2024-03-29T02:11:26;8.20;64.40
10233;DHT22;5161;48.174;11.756;2024-03-29T02:13:52;8.20;64.40
10233;DHT22;5161;48.174;11.756;2024-03-29T02:16:18;8.20;64.60
10233;DHT22;5161;48.174;11.756;2024-03-29T02:18:43;8.20;64.50
10233;DHT22;5161;48.174;11.756;2024-03-29T02:21:09;8.20;64.60
10233;DHT22;5161;48.174;11.756;2024-03-29T02:23:37;8.20;64.70
10233;DHT22;5161;48.174;11.756;2024-03-29T02:26:05;8.20;65.10
10233;DHT22;5161;48.174;11.756;2024-03-29T02:28:30;8.20;64.90
10233;DHT22;5161;48.174;11.756;2024-03-29T02:30:56;8.20;64.90
10233;DHT22;5161;48.174;11.756;2024-03-29T02:33:22;8.20;64.80
10233;DHT22;5161;48.174;11.756;2024-03-29T02:35:48;8.20;65.00
10233;DHT22;5161;48.174;11.756;2024-03-29T02:38:13;8.20;65.00
10233;DHT22;5161;48.174;11.756;2024-03-29T02:40:39;8.20;64.90
10233;DHT22;5161;48.174;11.756;2024-03-29T02:43:04;8.20;64.80
10233;DHT22;5161;48.174;11.756;2024-03-29T02:45:30;8.20;64.80
10233;DHT22;5161;48.174;11.756;2024-03-29T02:47:55;8.20;64.80
10233;DHT22;5161;48.174;11.756;2024-03-29T02:50:22;8.20;64.90
10233;DHT22;5161;48.174;11.756;2024-03-29T02:52:47;8.20;64.80
10233;DHT22;5161;48.174;11.756;2024-03-29T02:55:13;8.20;64.80
10233;DHT22;5161;48.174;11.756;2024-03-29T02:57:39;8.10;64.80
10233;DHT22;5161;48.174;11.756;2024-03-29T03:00:08;8.20;64.90
10233;DHT22;5161;48.174;11.756;2024-03-29T03:02:40;8.20;65.20
10233;DHT22;5161;48.174;11.756;2024-03-29T03:05:07;8.20;65.30
10233;DHT22;5161;48.174;11.756;2024-03-29T03:07:33;8.20;64.80
10233;DHT22;5161;48.174;11.756;2024-03-29T03:10:17;8.20;64.70
10233;DHT22;5161;48.174;11.756;2024-03-29T03:13:02;8.20;64.60
10233;DHT22;5161;48.174;11.756;2024-03-29T03:15:28;8.20;64.60
10233;DHT22;5161;48.174;11.756;2024-03-29T03:17:53;8.20;64.60
10233;DHT22;5161;48.174;11.756;2024-03-29T03:20:19;8.20;64.50
10233;DHT22;5161;48.174;11.756;2024-03-29T03:22:45;8.20;64.40
10233;DHT22;5161;48.174;11.756;2024-03-29T03:25:10;8.10;64.50
10233;DHT22;5161;48.174;11.756;2024-03-29T03:27:36;8.10;64.80
10233;DHT22;5161;48.174;11.756;2024-03-29T03:30:02;8.10;64.60
10233;DHT22;5161;48.174;11.756;2024-03-29T03:32:27;8.20;64.70
10233;DHT22;5161;48.174;11.756;2024-03-29T03:34:53;8.20;64.70
10233;DHT22;5161;48.174;11.756;2024-03-29T03:37:18;8.20;64.60
10233;DHT22;5161;48.174;11.756;2024-03-29T03:39:44;8.20;64.60
10233;DHT22;5161;48.174;11.756;2024-03-29T03:42:09;8.20;64.50
10233;DHT22;5161;48.174;11.756;2024-03-29T03:44:35;8.20;64.60
10233;DHT22;5161;48.174;11.756;2024-03-29T03:47:01;8.20;64.60
10233;DHT22;5161;48.174;11.756;2024-03-29T03:49:27;8.20;64.80
10233;DHT22;5161;48.174;11.756;2024-03-29T03:51:52;8.20;65.30
10233;DHT22;5161;48.174;11.756;2024-03-29T03:54:18;8.20;64.70
10233;DHT22;5161;48.174;11.756;2024-03-29T03:56:43;8.20;64.60
10233;DHT22;5161;48.174;11.756;2024-03-29T03:59:09;8.20;64.60
10233;DHT22;5161;48.174;11.756;2024-03-29T04:01:35;8.20;64.60
10233;DHT22;5161;48.174;11.756;2024-03-29T04:04:01;8.20;65.00
10233;DHT22;5161;48.174;11.756;2024-03-29T04:06:26;8.20;64.50
10233;DHT22;5161;48.174;11.756;2024-03-29T04:08:52;8.20;64.50
10233;DHT22;5161;48.174;11.756;2024-03-29T04:11:17;8.20;64.60
10233;DHT22;5161;48.174;11.756;2024-03-29T04:13:45;8.20;64.60
10233;DHT22;5161;48.174;11.756;2024-03-29T04:16:11;8.10;64.50
10233;DHT22;5161;48.174;11.756;2024-03-29T04:18:36;8.10;64.30
10233;DHT22;5161;48.174;11.756;2024-03-29T04:21:03;8.10;64.40
10233;DHT22;5161;48.174;11.756;2024-03-29T04:23:29;8.10;64.30
10233;DHT22;5161;48.174;11.756;2024-03-29T04:25:59;8.10;64.10
10233;DHT22;5161;48.174;11.756;2024-03-29T04:28:25;8.10;64.60
10233;DHT22;5161;48.174;11.756;2024-03-29T04:30:56;8.10;64.20
10233;DHT22;5161;48.174;11.756;2024-03-29T04:33:22;8.10;64.50
10233;DHT22;5161;48.174;11.756;2024-03-29T04:38:19;8.00;65.30
10233;DHT22;5161;48.174;11.756;2024-03-29T04:40:45;8.00;64.50
10233;DHT22;5161;48.174;11.756;2024-03-29T04:43:10;8.00;64.50
10233;DHT22;5161;48.174;11.756;2024-03-29T04:45:36;8.00;64.50
10233;DHT22;5161;48.174;11.756;2024-03-29T04:48:01;8.00;64.40
10233;DHT22;5161;48.174;11.756;2024-03-29T04:50:27;8.10;64.40
10233;DHT22;5161;48.174;11.756;2024-03-29T04:52:52;8.10;64.40
10233;DHT22;5161;48.174;11.756;2024-03-29T04:55:18;8.10;64.30
10233;DHT22;5161;48.174;11.756;2024-03-29T04:57:43;8.10;64.20
10233;DHT22;5161;48.174;11.756;2024-03-29T05:00:09;8.10;64.20
10233;DHT22;5161;48.174;11.756;2024-03-29T05:02:35;8.10;64.20
10233;DHT22;5161;48.174;11.756;2024-03-29T05:05:01;8.10;64.10
10233;DHT22;5161;48.174;11.756;2024-03-29T05:07:27;8.10;64.10
10233;DHT22;5161;48.174;11.756;2024-03-29T05:09:52;8.10;64.10
10233;DHT22;5161;48.174;11.756;2024-03-29T05:12:18;8.10;64.00
10233;DHT22;5161;48.174;11.756;2024-03-29T05:14:43;8.10;64.10
10233;DHT22;5161;48.174;11.756;2024-03-29T05:17:09;8.10;64.00
10233;DHT22;5161;48.174;11.756;2024-03-29T05:19:35;8.10;64.10
10233;DHT22;5161;48.174;11.756;2024-03-29T05:22:00;8.10;64.00
10233;DHT22;5161;48.174;11.756;2024-03-29T05:24:26;8.00;64.00
10233;DHT22;5161;48.174;11.756;2024-03-29T05:26:51;8.10;64.20
10233;DHT22;5161;48.174;11.756;2024-03-29T05:29:17;8.10;64.20
10233;DHT22;5161;48.174;11.756;2024-03-29T05:31:43;8.10;64.30
10233;DHT22;5161;48.174;11.756;2024-03-29T05:34:09;8.10;64.30
10233;DHT22;5161;48.174;11.756;2024-03-29T05:36:34;8.10;64.30
10233;DHT22;5161;48.174;11.756;2024-03-29T05:39:01;8.10;64.30
10233;DHT22;5161;48.174;11.756;2024-03-29T05:41:27;8.10;64.20
10233;DHT22;5161;48.174;11.756;2024-03-29T05:43:52;8.10;64.30
10233;DHT22;5161;48.174;11.756;2024-03-29T05:46:18;8.10;64.40
10233;DHT22;5161;48.174;11.756;2024-03-29T05:48:44;8.10;64.60
10233;DHT22;5161;48.174;11.756;2024-03-29T05:51:09;8.20;64.60
10233;DHT22;5161;48.174;11.756;2024-03-29T05:53:35;8.20;64.60
10233;DHT22;5161;48.174;11.756;2024-03-29T05:56:00;8.20;64.60
10233;DHT22;5161;48.174;11.756;2024-03-29T05:58:26;8.20;64.60
10233;DHT22;5161;48.174;11.756;2024-03-29T06:00:51;8.20;64.60
10233;DHT22;5161;48.174;11.756;2024-03-29T06:03:17;8.20;64.60
10233;DHT22;5161;48.174;11.756;2024-03-29T06:05:42;8.20;64.70
10233;DHT22;5161;48.174;11.756;2024-03-29T06:08:08;8.20;64.70
10233;DHT22;5161;48.174;11.756;2024-03-29T06:10:33;8.20;64.80
10233;DHT22;5161;48.174;11.756;2024-03-29T06:12:59;8.20;64.80
10233;DHT22;5161;48.174;11.756;2024-03-29T06:15:43;8.30;65.00
10233;DHT22;5161;48.174;11.756;2024-03-29T06:18:27;8.20;65.10
10233;DHT22;5161;48.174;11.756;2024-03-29T06:20:53;8.20;65.10
10233;DHT22;5161;48.174;11.756;2024-03-29T06:23:18;8.20;65.20
10233;DHT22;5161;48.174;11.756;2024-03-29T06:25:44;8.20;65.10
10233;DHT22;5161;48.174;11.756;2024-03-29T06:28:10;8.20;65.10
10233;DHT22;5161;48.174;11.756;2024-03-29T06:30:35;8.30;65.10
10233;DHT22;5161;48.174;11.756;2024-03-29T06:33:01;8.30;65.30
10233;DHT22;5161;48.174;11.756;2024-03-29T06:35:28;8.30;65.30
10233;DHT22;5161;48.174;11.756;2024-03-29T06:37:54;8.30;65.40
10233;DHT22;5161;48.174;11.756;2024-03-29T06:40:19;8.40;65.50
10233;DHT22;5161;48.174;11.756;2024-03-29T06:42:45;8.40;65.60
10233;DHT22;5161;48.174;11.756;2024-03-29T06:45:10;8.40;65.70
10233;DHT22;5161;48.174;11.756;2024-03-29T06:47:36;8.40;65.70
10233;DHT22;5161;48.174;11.756;2024-03-29T06:50:01;8.40;66.00
10233;DHT22;5161;48.174;11.756;2024-03-29T06:52:27;8.40;65.90
10233;DHT22;5161;48.174;11.756;2024-03-29T06:54:53;8.50;66.50
10233;DHT22;5161;48.174;11.756;2024-03-29T06:57:18;8.50;66.50
10233;DHT22;5161;48.174;11.756;2024-03-29T06:59:48;8.50;66.30
10233;DHT22;5161;48.174;11.756;2024-03-29T07:02:14;8.50;66.50
10233;DHT22;5161;48.174;11.756;2024-03-29T07:04:39;8.50;66.80
10233;DHT22;5161;48.174;11.756;2024-03-29T07:07:05;8.50;66.70
10233;DHT22;5161;48.174;11.756;2024-03-29T07:09:30;8.60;66.80
10233;DHT22;5161;48.174;11.756;2024-03-29T07:11:56;8.60;66.40
10233;DHT22;5161;48.174;11.756;2024-03-29T07:14:23;8.50;66.30
10233;DHT22;5161;48.174;11.756;2024-03-29T07:16:50;8.60;66.70
10233;DHT22;5161;48.174;11.756;2024-03-29T07:19:16;8.60;67.40
10233;DHT22;5161;48.174;11.756;2024-03-29T07:21:45;8.70;66.80
10233;DHT22;5161;48.174;11.756;2024-03-29T07:24:12;8.70;66.90
10233;DHT22;5161;48.174;11.756;2024-03-29T07:26:38;8.80;67.10
10233;DHT22;5161;48.174;11.756;2024-03-29T07:29:04;8.80;67.00
10233;DHT22;5161;48.174;11.756;2024-03-29T07:31:31;8.80;67.10
10233;DHT22;5161;48.174;11.756;2024-03-29T07:33:57;8.90;67.30
10233;DHT22;5161;48.174;11.756;2024-03-29T07:36:22;8.90;67.20
10233;DHT22;5161;48.174;11.756;2024-03-29T07:38:51;9.00;67.30
10233;DHT22;5161;48.174;11.756;2024-03-29T07:41:16;9.00;67.60
10233;DHT22;5161;48.174;11.756;2024-03-29T07:43:56;9.00;67.40
10233;DHT22;5161;48.174;11.756;2024-03-29T07:46:35;9.10;68.20
10233;DHT22;5161;48.174;11.756;2024-03-29T07:49:02;9.10;68.00
10233;DHT22;5161;48.174;11.756;2024-03-29T07:51:28;9.10;68.00
10233;DHT22;5161;48.174;11.756;2024-03-29T07:53:54;9.20;68.10
10233;DHT22;5161;48.174;11.756;2024-03-29T07:56:20;9.20;68.40
10233;DHT22;5161;48.174;11.756;2024-03-29T07:58:50;9.20;68.50
10233;DHT22;5161;48.174;11.756;2024-03-29T08:01:23;9.30;68.40
10233;DHT22;5161;48.174;11.756;2024-03-29T08:03:52;9.30;68.50
10233;DHT22;5161;48.174;11.756;2024-03-29T08:06:21;9.30;68.60
10233;DHT22;5161;48.174;11.756;2024-03-29T08:08:51;9.30;68.00
10233;DHT22;5161;48.174;11.756;2024-03-29T08:11:17;9.40;67.90
10233;DHT22;5161;48.174;11.756;2024-03-29T08:13:43;9.40;68.30
10233;DHT22;5161;48.174;11.756;2024-03-29T08:16:08;9.50;68.70
10233;DHT22;5161;48.174;11.756;2024-03-29T08:18:34;9.50;68.70
10233;DHT22;5161;48.174;11.756;2024-03-29T08:21:00;9.60;69.60
10233;DHT22;5161;48.174;11.756;2024-03-29T08:23:26;9.60;69.30
10233;DHT22;5161;48.174;11.756;2024-03-29T08:25:52;9.70;69.20
10233;DHT22;5161;48.174;11.756;2024-03-29T08:28:18;9.70;69.00
10233;DHT22;5161;48.174;11.756;2024-03-29T08:30:44;9.80;69.70
10233;DHT22;5161;48.174;11.756;2024-03-29T08:33:09;9.80;69.40
10233;DHT22;5161;48.174;11.756;2024-03-29T08:35:35;9.90;69.40
10233;DHT22;5161;48.174;11.756;2024-03-29T08:38:01;9.90;69.50
10233;DHT22;5161;48.174;11.756;2024-03-29T08:40:28;10.00;68.00
10233;DHT22;5161;48.174;11.756;2024-03-29T08:42:55;10.00;67.90
10233;DHT22;5161;48.174;11.756;2024-03-29T08:45:21;10.10;68.20
10233;DHT22;5161;48.174;11.756;2024-03-29T08:47:47;10.20;68.70
10233;DHT22;5161;48.174;11.756;2024-03-29T08:50:13;10.20;68.50
10233;DHT22;5161;48.174;11.756;2024-03-29T08:52:39;10.30;68.50
10233;DHT22;5161;48.174;11.756;2024-03-29T08:55:06;10.30;68.50
10233;DHT22;5161;48.174;11.756;2024-03-29T08:57:31;10.30;68.70
10233;DHT22;5161;48.174;11.756;2024-03-29T08:59:57;10.40;69.60
10233;DHT22;5161;48.174;11.756;2024-03-29T09:02:23;10.40;70.00
10233;DHT22;5161;48.174;11.756;2024-03-29T09:04:49;10.50;69.90
10233;DHT22;5161;48.174;11.756;2024-03-29T09:07:14;10.60;69.90
10233;DHT22;5161;48.174;11.756;2024-03-29T09:09:40;10.60;69.60
10233;DHT22;5161;48.174;11.756;2024-03-29T09:12:08;10.60;69.90
10233;DHT22;5161;48.174;11.756;2024-03-29T09:14:33;10.60;70.00
10233;DHT22;5161;48.174;11.756;2024-03-29T09:16:59;10.70;70.10
10233;DHT22;5161;48.174;11.756;2024-03-29T09:19:25;10.70;70.20
10233;DHT22;5161;48.174;11.756;2024-03-29T09:21:50;10.70;70.10
10233;DHT22;5161;48.174;11.756;2024-03-29T09:24:16;10.80;70.30
10233;DHT22;5161;48.174;11.756;2024-03-29T09:26:48;10.90;70.20
10233;DHT22;5161;48.174;11.756;2024-03-29T09:29:14;10.90;70.50
10233;DHT22;5161;48.174;11.756;2024-03-29T09:31:41;11.00;70.30
10233;DHT22;5161;48.174;11.756;2024-03-29T09:34:07;11.10;70.60
10233;DHT22;5161;48.174;11.756;2024-03-29T09:36:32;11.10;70.20
10233;DHT22;5161;48.174;11.756;2024-03-29T09:38:58;11.20;70.60
10233;DHT22;5161;48.174;11.756;2024-03-29T09:41:25;11.30;70.80
10233;DHT22;5161;48.174;11.756;2024-03-29T09:43:53;11.30;71.00
10233;DHT22;5161;48.174;11.756;2024-03-29T09:46:20;11.40;71.40
10233;DHT22;5161;48.174;11.756;2024-03-29T09:48:47;11.50;71.80
10233;DHT22;5161;48.174;11.756;2024-03-29T09:51:14;11.60;72.30
10233;DHT22;5161;48.174;11.756;2024-03-29T09:53:42;11.70;72.70
10233;DHT22;5161;48.174;11.756;2024-03-29T09:56:08;11.80;73.00
10233;DHT22;5161;48.174;11.756;2024-03-29T09:58:35;11.90;73.20
10233;DHT22;5161;48.174;11.756;2024-03-29T10:01:03;11.90;73.10
10233;DHT22;5161;48.174;11.756;2024-03-29T10:03:31;12.00;73.30
10233;DHT22;5161;48.174;11.756;2024-03-29T10:06:00;12.00;71.10
10233;DHT22;5161;48.174;11.756;2024-03-29T10:08:30;12.10;71.00
10233;DHT22;5161;48.174;11.756;2024-03-29T10:10:57;12.20;71.20
10233;DHT22;5161;48.174;11.756;2024-03-29T10:13:23;12.30;71.00
10233;DHT22;5161;48.174;11.756;2024-03-29T10:15:55;12.30;70.70
10233;DHT22;5161;48.174;11.756;2024-03-29T10:18:25;12.40;69.80
10233;DHT22;5161;48.174;11.756;2024-03-29T10:21:01;12.40;69.70
10233;DHT22;5161;48.174;11.756;2024-03-29T10:23:27;12.50;70.20
10233;DHT22;5161;48.174;11.756;2024-03-29T10:25:53;12.50;70.60
10233;DHT22;5161;48.174;11.756;2024-03-29T10:28:22;12.50;69.90
10233;DHT22;5161;48.174;11.756;2024-03-29T10:30:48;12.60;70.00
10233;DHT22;5161;48.174;11.756;2024-03-29T10:33:15;12.70;70.50
10233;DHT22;5161;48.174;11.756;2024-03-29T10:35:44;12.70;70.60
10233;DHT22;5161;48.174;11.756;2024-03-29T10:38:10;12.70;70.30
10233;DHT22;5161;48.174;11.756;2024-03-29T10:40:40;12.80;70.70
10233;DHT22;5161;48.174;11.756;2024-03-29T10:43:11;12.80;70.30
10233;DHT22;5161;48.174;11.756;2024-03-29T10:45:38;12.80;69.40
10233;DHT22;5161;48.174;11.756;2024-03-29T10:48:05;12.90;68.30
10233;DHT22;5161;48.174;11.756;2024-03-29T10:50:35;12.90;69.40
10233;DHT22;5161;48.174;11.756;2024-03-29T10:53:02;13.00;69.70
10233;DHT22;5161;48.174;11.756;2024-03-29T10:55:33;13.00;69.60
10233;DHT22;5161;48.174;11.756;2024-03-29T10:58:00;13.10;70.20
10233;DHT22;5161;48.174;11.756;2024-03-29T11:00:29;13.10;69.70
10233;DHT22;5161;48.174;11.756;2024-03-29T11:03:10;13.20;70.40
10233;DHT22;5161;48.174;11.756;2024-03-29T11:05:44;13.20;70.70
10233;DHT22;5161;48.174;11.756;2024-03-29T11:08:12;13.30;70.70
10233;DHT22;5161;48.174;11.756;2024-03-29T11:10:44;13.40;69.90
10233;DHT22;5161;48.174;11.756;2024-03-29T11:13:29;13.40;71.60
10233;DHT22;5161;48.174;11.756;2024-03-29T11:15:56;13.40;71.30
10233;DHT22;5161;48.174;11.756;2024-03-29T11:18:22;13.50;71.70
10233;DHT22;5161;48.174;11.756;2024-03-29T11:20:50;13.50;72.00
10233;DHT22;5161;48.174;11.756;2024-03-29T11:23:20;13.50;72.00
10233;DHT22;5161;48.174;11.756;2024-03-29T11:25:49;13.50;71.80
10233;DHT22;5161;48.174;11.756;2024-03-29T11:28:29;13.50;72.10
10233;DHT22;5161;48.174;11.756;2024-03-29T11:31:01;13.60;71.40
10233;DHT22;5161;48.174;11.756;2024-03-29T11:36:10;13.60;71.60
10233;DHT22;5161;48.174;11.756;2024-03-29T11:38:36;13.80;68.80
10233;DHT22;5161;48.174;11.756;2024-03-29T11:41:03;13.90;65.80
10233;DHT22;5161;48.174;11.756;2024-03-29T11:43:30;14.00;64.90
10233;DHT22;5161;48.174;11.756;2024-03-29T11:46:00;14.20;62.80
10233;DHT22;5161;48.174;11.756;2024-03-29T11:48:28;14.30;63.60
10233;DHT22;5161;48.174;11.756;2024-03-29T11:50:54;14.30;61.20
10233;DHT22;5161;48.174;11.756;2024-03-29T11:53:20;14.40;61.20
10233;DHT22;5161;48.174;11.756;2024-03-29T11:55:46;14.40;62.80
10233;DHT22;5161;48.174;11.756;2024-03-29T11:58:14;14.50;60.90
10233;DHT22;5161;48.174;11.756;2024-03-29T12:00:40;14.50;62.30
10233;DHT22;5161;48.174;11.756;2024-03-29T12:03:10;14.60;60.20
10233;DHT22;5161;48.174;11.756;2024-03-29T12:05:35;14.80;59.80
10233;DHT22;5161;48.174;11.756;2024-03-29T12:08:01;14.90;60.10
10233;DHT22;5161;48.174;11.756;2024-03-29T12:10:29;15.00;60.80
10233;DHT22;5161;48.174;11.756;2024-03-29T12:12:59;15.00;59.90
10233;DHT22;5161;48.174;11.756;2024-03-29T12:15:27;14.90;59.50
10233;DHT22;5161;48.174;11.756;2024-03-29T12:18:04;15.00;60.10
10233;DHT22;5161;48.174;11.756;2024-03-29T12:20:31;15.10;59.70
10233;DHT22;5161;48.174;11.756;2024-03-29T12:23:01;15.20;59.10
10233;DHT22;5161;48.174;11.756;2024-03-29T12:25:28;15.30;58.40
10233;DHT22;5161;48.174;11.756;2024-03-29T12:27:54;15.40;58.40
10233;DHT22;5161;48.174;11.756;2024-03-29T12:30:20;15.60;59.30
10233;DHT22;5161;48.174;11.756;2024-03-29T12:32:46;15.70;58.10
10233;DHT22;5161;48.174;11.756;2024-03-29T12:35:16;15.80;59.10
10233;DHT22;5161;48.174;11.756;2024-03-29T12:37:48;16.00;58.40
10233;DHT22;5161;48.174;11.756;2024-03-29T12:40:18;16.10;58.80
10233;DHT22;5161;48.174;11.756;2024-03-29T12:42:48;16.30;58.70
10233;DHT22;5161;48.174;11.756;2024-03-29T12:45:14;16.40;57.30
10233;DHT22;5161;48.174;11.756;2024-03-29T12:47:40;16.50;58.40
10233;DHT22;5161;48.174;11.756;2024-03-29T12:50:05;16.80;58.00
10233;DHT22;5161;48.174;11.756;2024-03-29T12:52:39;16.90;57.90
10233;DHT22;5161;48.174;11.756;2024-03-29T12:55:05;17.10;59.50
10233;DHT22;5161;48.174;11.756;2024-03-29T12:57:32;17.20;62.40
10233;DHT22;5161;48.174;11.756;2024-03-29T12:59:58;17.30;60.60
10233;DHT22;5161;48.174;11.756;2024-03-29T13:02:23;17.40;60.00
10233;DHT22;5161;48.174;11.756;2024-03-29T13:04:49;17.50;60.50
10233;DHT22;5161;48.174;11.756;2024-03-29T13:07:16;17.70;60.10
10233;DHT22;5161;48.174;11.756;2024-03-29T13:09:41;17.90;58.10
10233;DHT22;5161;48.174;11.756;2024-03-29T13:12:07;18.00;59.60
10233;DHT22;5161;48.174;11.756;2024-03-29T13:14:33;18.10;60.50
10233;DHT22;5161;48.174;11.756;2024-03-29T13:16:59;18.20;61.50
10233;DHT22;5161;48.174;11.756;2024-03-29T13:19:25;18.30;61.30
10233;DHT22;5161;48.174;11.756;2024-03-29T13:21:50;18.30;61.00
10233;DHT22;5161;48.174;11.756;2024-03-29T13:24:16;18.30;61.20
10233;DHT22;5161;48.174;11.756;2024-03-29T13:26:41;18.30;61.30
10233;DHT22;5161;48.174;11.756;2024-03-29T13:29:07;18.30;61.00
10233;DHT22;5161;48.174;11.756;2024-03-29T13:31:32;18.30;60.60
10233;DHT22;5161;48.174;11.756;2024-03-29T13:33:58;18.30;60.00
10233;DHT22;5161;48.174;11.756;2024-03-29T13:36:38;18.40;57.60
10233;DHT22;5161;48.174;11.756;2024-03-29T13:39:04;18.60;56.20
10233;DHT22;5161;48.174;11.756;2024-03-29T13:41:30;18.60;57.30
10233;DHT22;5161;48.174;11.756;2024-03-29T13:43:56;18.80;57.60
10233;DHT22;5161;48.174;11.756;2024-03-29T13:46:21;18.90;57.10
10233;DHT22;5161;48.174;11.756;2024-03-29T13:48:47;18.90;54.90
10233;DHT22;5161;48.174;11.756;2024-03-29T13:51:13;18.90;54.90
10233;DHT22;5161;48.174;11.756;2024-03-29T13:53:41;18.80;53.80
10233;DHT22;5161;48.174;11.756;2024-03-29T13:56:07;18.80;53.60
10233;DHT22;5161;48.174;11.756;2024-03-29T13:58:32;18.80;54.00
10233;DHT22;5161;48.174;11.756;2024-03-29T14:00:59;18.70;55.30
10233;DHT22;5161;48.174;11.756;2024-03-29T14:03:26;18.70;54.40
10233;DHT22;5161;48.174;11.756;2024-03-29T14:05:51;18.80;54.00
10233;DHT22;5161;48.174;11.756;2024-03-29T14:08:17;18.80;54.00
10233;DHT22;5161;48.174;11.756;2024-03-29T14:10:42;18.90;53.50
10233;DHT22;5161;48.174;11.756;2024-03-29T14:13:09;19.00;53.50
10233;DHT22;5161;48.174;11.756;2024-03-29T14:15:35;18.90;53.80
10233;DHT22;5161;48.174;11.756;2024-03-29T14:18:00;18.90;53.50
10233;DHT22;5161;48.174;11.756;2024-03-29T14:20:26;18.90;53.50
10233;DHT22;5161;48.174;11.756;2024-03-29T14:22:52;18.90;52.70
10233;DHT22;5161;48.174;11.756;2024-03-29T14:25:21;19.00;54.00
10233;DHT22;5161;48.174;11.756;2024-03-29T14:27:47;19.10;52.80
10233;DHT22;5161;48.174;11.756;2024-03-29T14:30:20;19.20;52.70
10233;DHT22;5161;48.174;11.756;2024-03-29T14:32:46;19.20;52.40
10233;DHT22;5161;48.174;11.756;2024-03-29T14:35:15;19.30;50.90
10233;DHT22;5161;48.174;11.756;2024-03-29T14:37:45;19.40;51.30
10233;DHT22;5161;48.174;11.756;2024-03-29T14:40:11;19.40;50.30
10233;DHT22;5161;48.174;11.756;2024-03-29T14:42:41;19.30;52.10
10233;DHT22;5161;48.174;11.756;2024-03-29T14:45:07;19.20;52.40
10233;DHT22;5161;48.174;11.756;2024-03-29T14:47:33;19.10;51.70
10233;DHT22;5161;48.174;11.756;2024-03-29T14:50:01;19.10;51.30
10233;DHT22;5161;48.174;11.756;2024-03-29T14:52:33;19.00;51.50
10233;DHT22;5161;48.174;11.756;2024-03-29T14:54:59;18.90;50.30
10233;DHT22;5161;48.174;11.756;2024-03-29T14:57:25;18.90;51.30
10233;DHT22;5161;48.174;11.756;2024-03-29T14:59:50;18.80;50.30
10233;DHT22;5161;48.174;11.756;2024-03-29T15:02:16;18.80;50.90
10233;DHT22;5161;48.174;11.756;2024-03-29T15:04:42;18.80;50.80
10233;DHT22;5161;48.174;11.756;2024-03-29T15:07:07;18.80;51.00
10233;DHT22;5161;48.174;11.756;2024-03-29T15:09:33;18.80;51.00
10233;DHT22;5161;48.174;11.756;2024-03-29T15:12:00;18.80;50.00
10233;DHT22;5161;48.174;11.756;2024-03-29T15:14:27;18.90;50.70
10233;DHT22;5161;48.174;11.756;2024-03-29T15:16:53;18.90;51.00
10233;DHT22;5161;48.174;11.756;2024-03-29T15:19:18;18.90;49.90
10233;DHT22;5161;48.174;11.756;2024-03-29T15:21:44;18.90;50.30
10233;DHT22;5161;48.174;11.756;2024-03-29T15:24:09;18.90;50.50
10233;DHT22;5161;48.174;11.756;2024-03-29T15:26:35;18.90;51.00
10233;DHT22;5161;48.174;11.756;2024-03-29T15:29:03;18.90;51.50
10233;DHT22;5161;48.174;11.756;2024-03-29T15:31:39;18.80;50.50
10233;DHT22;5161;48.174;11.756;2024-03-29T15:34:08;18.80;51.10
10233;DHT22;5161;48.174;11.756;2024-03-29T15:36:35;18.80;50.90
10233;DHT22;5161;48.174;11.756;2024-03-29T15:39:02;18.80;50.60
10233;DHT22;5161;48.174;11.756;2024-03-29T15:41:40;18.70;50.90